Time;durP1;ratioP1;P1;durP2;ratioP2;P2;SDS_P1;SDS_P2;PMS_P1;PMS_P2;Temp;Humidity;BMP_temperature;BMP_pressure;BME280_temperature;BME280_humidity;BME280_pressure;Samples;Min_cycle;Max_cycle;Signal;HPM_P1;HPM_P2
2023/05/18 00:02:03;;;;;;;11.63;2.35;;;6.90;99.90;;;;;;5131982;27;20035;-60
2023/05/18 00:04:30;;;;;;;8.02;2.40;;;6.20;99.90;;;;;;5133019;27;20345;-60
2023/05/18 00:06:57;;;;;;;8.35;2.53;;;8.30;99.90;;;;;;5134293;27;20132;-60
2023/05/18 00:09:26;;;;;;;10.75;2.33;;;6.20;99.90;;;;;;5132883;27;20409;-60
2023/05/18 00:11:52;;;;;;;11.55;2.60;;;8.10;99.90;;;;;;5112740;27;20026;-60
2023/05/18 00:14:19;;;;;;;8.90;2.67;;;6.20;99.90;;;;;;5132187;27;20463;-60
2023/05/18 00:16:45;;;;;;;7.68;2.35;;;6.40;99.90;;;;;;5133216;27;20668;-60
2023/05/18 00:19:13;;;;;;;8.98;2.58;;;8.00;99.90;;;;;;5132134;27;20598;-60
2023/05/18 00:21:45;;;;;;;11.45;2.50;;;8.40;99.90;;;;;;5131487;27;20776;-60
2023/05/18 00:24:11;;;;;;;9.17;2.50;;;6.10;99.90;;;;;;5131931;27;20035;-60
2023/05/18 00:26:42;;;;;;;14.48;2.67;;;6.10;99.90;;;;;;5112951;27;20308;-60
2023/05/18 00:29:08;;;;;;;11.88;2.78;;;6.90;99.90;;;;;;5113056;27;20071;-59
2023/05/18 00:31:35;;;;;;;8.45;2.92;;;6.20;99.90;;;;;;5113529;27;20500;-60
2023/05/18 00:34:02;;;;;;;9.95;2.70;;;6.10;99.90;;;;;;5131646;27;20043;-60
2023/05/18 00:36:28;;;;;;;10.70;2.22;;;6.20;99.90;;;;;;5113364;27;20133;-60
2023/05/18 00:38:54;;;;;;;9.73;2.50;;;7.80;99.90;;;;;;5114909;27;20047;-60
2023/05/18 00:41:20;;;;;;;9.45;2.53;;;5.80;99.90;;;;;;5131893;27;20049;-61
2023/05/18 00:43:46;;;;;;;6.38;2.17;;;6.40;99.90;;;;;;5113755;27;20042;-59
2023/05/18 00:46:12;;;;;;;10.82;3.95;;;6.10;99.90;;;;;;5130650;27;20027;-60
2023/05/18 00:48:37;;;;;;;7.57;2.40;;;6.00;99.90;;;;;;5133300;27;20087;-60
2023/05/18 00:51:04;;;;;;;8.30;2.47;;;5.90;99.90;;;;;;5131727;27;20163;-60
2023/05/18 00:53:31;;;;;;;9.23;3.17;;;5.90;99.90;;;;;;5130563;27;20128;-60
2023/05/18 00:55:57;;;;;;;11.15;2.30;;;5.90;99.90;;;;;;5131385;27;20043;-59
2023/05/18 00:58:24;;;;;;;11.07;2.55;;;6.00;99.90;;;;;;5131643;27;20078;-60
2023/05/18 01:00:50;;;;;;;9.25;2.45;;;6.10;99.90;;;;;;5133047;27;20574;-60
2023/05/18 01:03:19;;;;;;;9.05;3.00;;;6.70;99.90;;;;;;5131222;27;20034;-61
2023/05/18 01:05:48;;;;;;;10.63;2.35;;;6.50;99.90;;;;;;5131960;27;20046;-60
2023/05/18 01:08:18;;;;;;;7.00;2.38;;;6.20;99.90;;;;;;5133162;27;20082;-60
2023/05/18 01:10:45;;;;;;;8.63;2.80;;;7.50;99.90;;;;;;5131776;27;20038;-60
2023/05/18 01:13:48;;;;;;;10.02;2.42;;;8.10;99.90;;;;;;5131628;27;20475;-60
2023/05/18 01:16:20;;;;;;;7.90;3.40;;;6.20;99.90;;;;;;5118356;27;20086;-60
2023/05/18 01:18:53;;;;;;;9.75;3.53;;;7.10;99.90;;;;;;5132854;27;20191;-60
2023/05/18 01:21:45;;;;;;;10.38;3.30;;;6.10;99.90;;;;;;5132501;27;20041;-60
2023/05/18 01:24:20;;;;;;;9.18;3.55;;;6.20;99.90;;;;;;5133087;27;20042;-60
2023/05/18 01:26:49;;;;;;;8.88;2.63;;;6.40;99.90;;;;;;5131416;27;20099;-60
2023/05/18 01:29:18;;;;;;;9.60;2.45;;;6.10;99.90;;;;;;5133185;27;20049;-59
2023/05/18 01:31:44;;;;;;;9.13;2.45;;;6.20;99.90;;;;;;5134818;27;20035;-60
2023/05/18 01:34:10;;;;;;;9.88;2.42;;;6.10;99.90;;;;;;5135240;27;20049;-61
2023/05/18 01:36:35;;;;;;;8.70;2.42;;;6.10;99.90;;;;;;5136340;27;20037;-60
2023/05/18 01:39:02;;;;;;;8.88;2.80;;;6.30;99.90;;;;;;5135841;27;20080;-60
2023/05/18 01:41:29;;;;;;;11.32;2.90;;;6.30;99.90;;;;;;5093503;27;20126;-60
2023/05/18 01:44:22;;;;;;;7.97;2.70;;;6.20;99.90;;;;;;5135356;27;20039;-60
2023/05/18 01:47:00;;;;;;;11.55;2.95;;;6.40;99.90;;;;;;5135116;27;20038;-60
2023/05/18 01:49:46;;;;;;;9.82;2.88;;;6.40;99.90;;;;;;5135332;27;20095;-60
2023/05/18 01:52:18;;;;;;;10.32;3.20;;;6.20;99.90;;;;;;5134922;27;20042;-60
2023/05/18 01:54:48;;;;;;;8.90;2.72;;;6.30;99.90;;;;;;5135503;27;20372;-60
2023/05/18 01:57:17;;;;;;;7.97;3.35;;;6.40;99.90;;;;;;5136073;27;20040;-60
2023/05/18 01:59:43;;;;;;;9.13;2.90;;;6.40;99.90;;;;;;5133819;27;20031;-60
2023/05/18 02:02:10;;;;;;;7.68;2.85;;;6.50;99.90;;;;;;5134060;27;20039;-60
2023/05/18 02:04:36;;;;;;;9.32;3.40;;;6.30;99.90;;;;;;5134103;27;20443;-60
2023/05/18 02:07:02;;;;;;;7.78;3.03;;;6.40;99.90;;;;;;5134915;27;20035;-60
2023/05/18 02:09:28;;;;;;;11.48;3.92;;;6.60;99.90;;;;;;5135638;27;20055;-59
2023/05/18 02:11:53;;;;;;;7.78;3.08;;;6.40;99.90;;;;;;5134391;27;20038;-60
2023/05/18 02:14:19;;;;;;;6.88;2.60;;;6.30;99.90;;;;;;5135451;27;20130;-60
2023/05/18 02:16:45;;;;;;;10.65;3.33;;;6.60;99.90;;;;;;5135754;27;20042;-60
2023/05/18 02:19:13;;;;;;;8.07;3.30;;;6.20;99.90;;;;;;5116344;27;20113;-60
2023/05/18 02:21:40;;;;;;;14.55;3.88;;;6.40;99.90;;;;;;5134940;27;20049;-60
2023/05/18 02:24:06;;;;;;;10.45;4.00;;;8.70;99.90;;;;;;5135248;27;20613;-60
2023/05/18 02:26:32;;;;;;;11.23;3.50;;;6.30;99.90;;;;;;5135117;27;20035;-60
2023/05/18 02:28:58;;;;;;;11.07;3.10;;;6.40;99.90;;;;;;5134076;27;20376;-60
2023/05/18 02:31:28;;;;;;;12.40;3.17;;;6.40;99.90;;;;;;5134779;27;20122;-60
2023/05/18 02:33:53;;;;;;;10.25;3.55;;;7.50;99.90;;;;;;5135754;27;20050;-60
2023/05/18 02:36:21;;;;;;;10.32;3.08;;;6.30;99.90;;;;;;5132935;27;20043;-60
2023/05/18 02:38:47;;;;;;;11.63;3.42;;;8.40;99.90;;;;;;5118555;27;20802;-60
2023/05/18 02:41:13;;;;;;;8.35;3.42;;;7.90;99.90;;;;;;5133502;27;20406;-60
2023/05/18 02:43:39;;;;;;;10.10;3.78;;;7.20;99.90;;;;;;5133841;27;20042;-60
2023/05/18 02:46:05;;;;;;;11.80;4.05;;;6.30;99.90;;;;;;5135414;27;20046;-59
2023/05/18 02:48:31;;;;;;;10.05;4.10;;;6.30;99.90;;;;;;5134939;27;20566;-60
2023/05/18 02:50:57;;;;;;;9.52;3.20;;;6.40;99.90;;;;;;5132432;27;20034;-60
2023/05/18 02:53:23;;;;;;;13.35;3.72;;;6.40;99.90;;;;;;5134688;27;20119;-60
2023/05/18 02:55:55;;;;;;;7.45;3.05;;;6.40;99.90;;;;;;5133939;27;20042;-61
2023/05/18 02:58:24;;;;;;;7.93;3.42;;;6.40;99.90;;;;;;5133493;27;20038;-60
2023/05/18 03:00:51;;;;;;;8.30;3.40;;;6.40;99.90;;;;;;5116352;27;20107;-60
2023/05/18 03:03:17;;;;;;;14.05;3.70;;;6.40;99.90;;;;;;5115775;27;20043;-60
2023/05/18 03:05:43;;;;;;;9.20;2.92;;;7.60;99.90;;;;;;5133831;27;20503;-59
2023/05/18 03:08:09;;;;;;;9.85;3.13;;;6.50;99.90;;;;;;5135101;27;20039;-60
2023/05/18 03:10:36;;;;;;;7.63;2.70;;;6.40;99.90;;;;;;5135651;27;20046;-60
2023/05/18 03:13:02;;;;;;;9.95;3.03;;;8.20;99.90;;;;;;5133656;27;20039;-60
2023/05/18 03:15:30;;;;;;;9.57;3.10;;;6.50;99.90;;;;;;5133530;27;20062;-60
2023/05/18 03:17:59;;;;;;;15.73;4.07;;;8.00;99.90;;;;;;5134454;27;20046;-60
2023/05/18 03:20:25;;;;;;;9.95;3.00;;;7.30;99.90;;;;;;5113998;27;20039;-59
2023/05/18 03:22:51;;;;;;;9.75;3.17;;;6.60;99.90;;;;;;5134390;27;20046;-59
2023/05/18 03:25:17;;;;;;;12.90;3.72;;;6.50;99.90;;;;;;5133812;27;20648;-59
2023/05/18 03:27:42;;;;;;;11.60;3.72;;;6.40;99.90;;;;;;5113771;27;20045;-60
2023/05/18 03:30:09;;;;;;;8.20;3.33;;;7.50;99.90;;;;;;5134573;27;20612;-59
2023/05/18 03:32:35;;;;;;;8.85;3.17;;;6.70;99.90;;;;;;5132524;27;20047;-60
2023/05/18 03:35:03;;;;;;;9.77;3.63;;;6.70;99.90;;;;;;5114726;27;20762;-60
2023/05/18 03:37:29;;;;;;;9.05;4.45;;;6.70;99.90;;;;;;5113160;27;20133;-59
2023/05/18 03:39:59;;;;;;;8.50;3.30;;;6.80;99.90;;;;;;5135000;27;20048;-60
2023/05/18 03:42:25;;;;;;;7.15;3.38;;;6.80;99.90;;;;;;5133670;27;20078;-60
2023/05/18 03:44:51;;;;;;;9.40;3.60;;;6.70;99.90;;;;;;5133170;27;20141;-59
2023/05/18 03:47:17;;;;;;;9.27;3.40;;;6.70;99.90;;;;;;5133856;27;20045;-59
2023/05/18 03:49:43;;;;;;;10.32;3.45;;;6.70;99.90;;;;;;5134561;27;20058;-58
2023/05/18 03:52:09;;;;;;;12.60;3.85;;;6.70;99.90;;;;;;5134254;27;20056;-59
2023/05/18 03:54:35;;;;;;;8.35;3.58;;;6.80;99.90;;;;;;5132121;27;20818;-59
2023/05/18 03:57:00;;;;;;;9.32;3.38;;;7.60;99.90;;;;;;5132812;27;20057;-59
2023/05/18 03:59:26;;;;;;;9.45;3.83;;;6.70;99.90;;;;;;5133885;27;20043;-60
2023/05/18 04:01:52;;;;;;;11.07;3.63;;;6.70;99.90;;;;;;5133450;27;20044;-59
2023/05/18 04:04:22;;;;;;;11.90;3.70;;;6.90;99.90;;;;;;5132282;27;20217;-59
2023/05/18 04:06:50;;;;;;;8.05;3.53;;;7.80;99.90;;;;;;5115988;27;21267;-59
2023/05/18 04:09:22;;;;;;;9.23;3.78;;;7.00;99.90;;;;;;5117682;27;20046;-59
2023/05/18 04:11:48;;;;;;;;;;;8.30;99.90;;;;;;5134786;27;20595;-60
2023/05/18 04:14:15;;;;;;;9.68;3.35;;;8.10;99.90;;;;;;5132261;27;20021;-60
2023/05/18 04:16:41;;;;;;;11.13;4.20;;;8.50;99.90;;;;;;5132962;27;20116;-60
2023/05/18 04:19:07;;;;;;;12.13;3.88;;;7.10;99.90;;;;;;5113626;27;20050;-60
2023/05/18 04:21:34;;;;;;;8.27;4.85;;;6.90;99.90;;;;;;5133432;27;20039;-59
2023/05/18 04:24:05;;;;;;;11.45;4.07;;;7.10;99.90;;;;;;5133019;27;20035;-60
2023/05/18 04:26:33;;;;;;;11.45;4.13;;;7.00;99.90;;;;;;5132238;27;20043;-60
2023/05/18 04:28:59;;;;;;;10.25;3.80;;;8.60;99.90;;;;;;5132114;27;20062;-59
2023/05/18 04:31:28;;;;;;;10.57;4.55;;;7.40;99.90;;;;;;5131343;27;20304;-60
2023/05/18 04:33:59;;;;;;;13.73;3.97;;;7.30;99.90;;;;;;5131297;27;20047;-59
2023/05/18 04:36:29;;;;;;;8.25;3.78;;;9.30;99.90;;;;;;5132968;27;20039;-59
2023/05/18 04:38:58;;;;;;;9.10;3.80;;;7.50;99.90;;;;;;5132860;27;20074;-59
2023/05/18 04:41:24;;;;;;;10.90;3.70;;;7.30;99.90;;;;;;5133309;27;20125;-59
2023/05/18 04:43:51;;;;;;;10.00;4.00;;;9.50;99.90;;;;;;5131339;27;20038;-59
2023/05/18 04:46:18;;;;;;;10.52;3.85;;;8.50;99.90;;;;;;5131323;27;20042;-60
2023/05/18 04:48:43;;;;;;;8.52;3.63;;;7.50;99.90;;;;;;5130846;27;20098;-60
2023/05/18 04:51:09;;;;;;;12.85;3.80;;;7.50;99.90;;;;;;5132239;27;20050;-59
2023/05/18 04:53:37;;;;;;;8.35;3.70;;;7.50;99.90;;;;;;5131334;27;20038;-60
2023/05/18 04:56:03;;;;;;;9.70;3.58;;;7.40;99.90;;;;;;5130870;27;20096;-60
2023/05/18 04:58:29;;;;;;;9.20;3.38;;;7.50;99.90;;;;;;5130375;27;20038;-59
2023/05/18 05:00:56;;;;;;;10.30;4.53;;;7.40;99.90;;;;;;5132744;27;20828;-59
2023/05/18 05:03:21;;;;;;;13.73;3.42;;;8.40;99.90;;;;;;5130918;27;20167;-60
2023/05/18 05:05:47;;;;;;;11.18;3.30;;;7.90;99.90;;;;;;5129032;27;20137;-59
2023/05/18 05:08:13;;;;;;;11.32;3.00;;;7.70;99.90;;;;;;5131212;27;20396;-59
2023/05/18 05:10:39;;;;;;;11.93;3.33;;;7.90;99.90;;;;;;5132945;27;20045;-60
2023/05/18 05:13:05;;;;;;;14.25;3.58;;;7.80;99.90;;;;;;5130685;27;20039;-60
2023/05/18 05:15:31;;;;;;;9.50;2.83;;;7.80;99.90;;;;;;5132395;27;20046;-60
2023/05/18 05:17:57;;;;;;;13.55;3.70;;;9.00;99.90;;;;;;5130942;27;20031;-60
2023/05/18 05:20:23;;;;;;;7.45;3.00;;;8.20;99.90;;;;;;5112856;27;20038;-58
2023/05/18 05:22:49;;;;;;;9.60;3.03;;;8.20;99.90;;;;;;5131494;27;20057;-60
2023/05/18 05:25:15;;;;;;;10.57;3.08;;;8.90;99.90;;;;;;5132444;27;20073;-60
2023/05/18 05:27:40;;;;;;;6.82;2.60;;;8.90;99.90;;;;;;5131096;27;20066;-60
2023/05/18 05:30:07;;;;;;;8.10;3.22;;;8.30;99.90;;;;;;5131981;27;20066;-60
2023/05/18 05:32:34;;;;;;;10.18;3.42;;;8.40;99.90;;;;;;5132659;27;20121;-60
2023/05/18 05:35:00;;;;;;;17.50;4.38;;;8.60;99.90;;;;;;5114314;27;20035;-60
2023/05/18 05:37:26;;;;;;;7.82;2.42;;;8.60;99.90;;;;;;5130008;27;20103;-60
2023/05/18 05:39:51;;;;;;;10.70;2.83;;;8.80;99.90;;;;;;5132776;27;20038;-59
2023/05/18 05:42:17;;;;;;;11.20;2.88;;;8.60;99.90;;;;;;5131076;27;20127;-61
2023/05/18 05:44:43;;;;;;;8.27;2.28;;;8.60;99.90;;;;;;5130871;27;20314;-59
2023/05/18 05:47:08;;;;;;;10.43;3.00;;;8.70;99.90;;;;;;5130333;27;20051;-59
2023/05/18 05:49:34;;;;;;;11.07;2.88;;;9.70;99.90;;;;;;5111141;27;21085;-62
2023/05/18 05:52:00;;;;;;;11.48;3.03;;;9.00;99.90;;;;;;5130115;27;20393;-61
2023/05/18 05:54:26;;;;;;;9.20;2.45;;;8.80;99.90;;;;;;5130554;27;20310;-61
2023/05/18 05:56:52;;;;;;;13.48;3.20;;;8.80;99.90;;;;;;5130592;27;20046;-61
2023/05/18 05:59:18;;;;;;;9.45;2.88;;;9.00;99.90;;;;;;5132111;27;20200;-60
2023/05/18 06:01:43;;;;;;;7.75;1.98;;;8.90;99.90;;;;;;5129772;27;20034;-61
2023/05/18 06:04:11;;;;;;;8.10;2.58;;;9.00;99.90;;;;;;5130070;27;20061;-61
2023/05/18 06:06:38;;;;;;;9.68;2.53;;;9.00;99.90;;;;;;5129705;27;20051;-60
2023/05/18 06:09:04;;;;;;;8.32;2.35;;;9.00;99.90;;;;;;5130628;27;20047;-61
2023/05/18 06:11:30;;;;;;;10.85;1.90;;;9.00;99.90;;;;;;5129018;27;20549;-60
2023/05/18 06:13:56;;;;;;;13.15;2.53;;;9.10;99.90;;;;;;5129117;27;20053;-60
2023/05/18 06:16:22;;;;;;;12.13;2.22;;;9.20;99.90;;;;;;5131572;27;20042;-61
2023/05/18 06:18:47;;;;;;;10.80;2.22;;;9.30;99.90;;;;;;5134314;27;20095;-61
2023/05/18 06:21:14;;;;;;;8.38;2.22;;;9.40;99.90;;;;;;5133671;27;20043;-60
2023/05/18 06:23:40;;;;;;;8.05;1.73;;;9.40;99.90;;;;;;5133344;27;20057;-61
2023/05/18 06:26:06;;;;;;;9.20;2.20;;;9.50;99.90;;;;;;5134602;27;20035;-60
2023/05/18 06:28:32;;;;;;;6.03;2.03;;;11.10;99.90;;;;;;5135652;27;20631;-61
2023/05/18 06:30:58;;;;;;;9.90;2.55;;;9.50;99.90;;;;;;5135679;27;20134;-60
2023/05/18 06:33:24;;;;;;;6.40;1.88;;;9.40;99.90;;;;;;5116287;27;20038;-60
2023/05/18 06:35:50;;;;;;;8.50;2.05;;;9.50;99.90;;;;;;5133129;27;20498;-61
2023/05/18 06:38:16;;;;;;;10.93;2.30;;;9.60;99.90;;;;;;5134625;27;20775;-61
2023/05/18 06:40:42;;;;;;;8.57;2.00;;;9.50;99.90;;;;;;5137345;27;20106;-61
2023/05/18 06:43:08;;;;;;;9.30;1.83;;;9.70;99.90;;;;;;5135689;27;20279;-60
2023/05/18 06:45:33;;;;;;;12.98;2.05;;;9.80;99.90;;;;;;5134338;27;20196;-61
2023/05/18 06:47:59;;;;;;;10.35;2.00;;;9.80;99.90;;;;;;5136750;27;20047;-61
2023/05/18 06:50:25;;;;;;;14.77;2.20;;;10.20;99.90;;;;;;5134443;27;20038;-61
2023/05/18 06:52:51;;;;;;;9.32;2.30;;;9.80;99.90;;;;;;5117185;27;20547;-61
2023/05/18 06:55:17;;;;;;;11.45;1.95;;;10.00;99.90;;;;;;5134055;27;20046;-61
2023/05/18 06:57:43;;;;;;;8.00;1.88;;;10.00;99.90;;;;;;5135826;27;20255;-60
2023/05/18 07:00:11;;;;;;;10.43;2.10;;;10.20;99.90;;;;;;5134428;27;20054;-60
2023/05/18 07:02:38;;;;;;;10.80;2.38;;;10.60;99.90;;;;;;5136135;27;20073;-61
2023/05/18 07:05:07;;;;;;;11.50;2.33;;;10.80;99.90;;;;;;5133986;27;20062;-60
2023/05/18 07:07:35;;;;;;;7.65;2.60;;;10.70;99.90;;;;;;5134572;27;20034;-61
2023/05/18 07:10:02;;;;;;;8.75;2.00;;;10.80;99.90;;;;;;5135539;27;20129;-60
2023/05/18 07:12:28;;;;;;;9.02;2.10;;;10.50;99.90;;;;;;5134584;27;20494;-61
2023/05/18 07:14:54;;;;;;;6.47;1.60;;;10.60;99.90;;;;;;5134862;27;20052;-60
2023/05/18 07:17:19;;;;;;;15.15;3.30;;;10.50;99.90;;;;;;5134718;27;20362;-61
2023/05/18 07:19:45;;;;;;;12.07;2.33;;;10.70;99.90;;;;;;5133854;27;20027;-60
2023/05/18 07:22:11;;;;;;;7.13;1.95;;;10.50;99.90;;;;;;5114874;27;20436;-61
2023/05/18 07:24:37;;;;;;;11.45;2.00;;;10.70;99.90;;;;;;5134310;27;20039;-60
2023/05/18 07:27:02;;;;;;;8.63;1.77;;;10.90;99.90;;;;;;5134102;27;20046;-60
2023/05/18 07:29:29;;;;;;;8.88;2.65;;;11.50;99.90;;;;;;5134074;27;20082;-61
2023/05/18 07:31:55;;;;;;;7.05;1.83;;;12.50;99.90;;;;;;5133880;27;20554;-61
2023/05/18 07:34:20;;;;;;;8.50;1.58;;;12.70;99.90;;;;;;5132853;27;20034;-61
2023/05/18 07:36:46;;;;;;;9.30;2.15;;;13.60;99.90;;;;;;5133812;27;20057;-60
2023/05/18 07:39:17;;;;;;;14.35;1.90;;;14.00;99.90;;;;;;5135063;27;20039;-60
2023/05/18 07:41:44;;;;;;;7.93;1.80;;;14.50;99.90;;;;;;5134611;27;20051;-61
2023/05/18 07:44:11;;;;;;;10.95;2.30;;;14.50;99.90;;;;;;5113846;27;20043;-60
2023/05/18 07:46:36;;;;;;;7.32;1.90;;;14.90;99.90;;;;;;5133458;27;20095;-59
2023/05/18 07:49:02;;;;;;;8.85;1.60;;;15.20;99.90;;;;;;5132936;27;20042;-61
2023/05/18 07:51:28;;;;;;;10.10;2.28;;;15.40;99.90;;;;;;5133373;27;20599;-60
2023/05/18 07:53:54;;;;;;;10.32;2.40;;;15.30;99.90;;;;;;5134693;27;20088;-60
2023/05/18 07:56:21;;;;;;;9.02;2.25;;;14.60;99.90;;;;;;5132980;27;20197;-60
2023/05/18 07:58:47;;;;;;;7.30;2.30;;;14.10;99.90;;;;;;5132676;27;20057;-60
2023/05/18 08:01:12;;;;;;;6.90;2.05;;;14.00;99.90;;;;;;5135131;27;20031;-60
2023/05/18 08:03:38;;;;;;;7.55;2.08;;;13.80;99.90;;;;;;5134003;27;20050;-60
2023/05/18 08:06:04;;;;;;;7.57;1.95;;;13.80;99.90;;;;;;5132084;27;20042;-60
2023/05/18 08:08:30;;;;;;;8.27;1.90;;;13.90;99.90;;;;;;5133738;27;20053;-61
2023/05/18 08:10:56;;;;;;;7.93;2.05;;;13.80;99.90;;;;;;5133988;27;20041;-61
2023/05/18 08:13:22;;;;;;;7.50;1.60;;;13.90;99.90;;;;;;5134410;27;20074;-60
2023/05/18 08:15:48;;;;;;;5.90;1.88;;;13.70;99.90;;;;;;5133516;27;20090;-60
2023/05/18 08:18:14;;;;;;;7.53;2.17;;;13.50;99.90;;;;;;5132159;27;20032;-59
2023/05/18 08:20:39;;;;;;;9.23;2.67;;;13.60;99.90;;;;;;5130834;27;20043;-60
2023/05/18 08:23:05;;;;;;;6.28;1.85;;;13.50;99.90;;;;;;5113689;27;20066;-60
2023/05/18 08:25:31;;;;;;;8.38;2.20;;;13.40;99.90;;;;;;5131995;27;20031;-60
2023/05/18 08:27:56;;;;;;;10.98;2.05;;;13.10;99.90;;;;;;5132437;27;20768;-60
2023/05/18 08:30:22;;;;;;;7.28;1.55;;;13.40;99.90;;;;;;5133463;27;20043;-60
2023/05/18 08:32:48;;;;;;;9.48;2.38;;;13.70;99.90;;;;;;5133546;27;20150;-60
2023/05/18 08:35:14;;;;;;;9.63;2.53;;;13.40;99.90;;;;;;5097441;27;20034;-60
2023/05/18 08:37:40;;;;;;;5.93;1.65;;;13.80;99.90;;;;;;5132718;27;20054;-59
2023/05/18 08:40:06;;;;;;;9.80;2.13;;;14.00;99.90;;;;;;5132951;27;20074;-60
2023/05/18 08:42:38;;;;;;;8.30;2.13;;;13.60;99.90;;;;;;5132510;27;20048;-60
2023/05/18 08:45:12;;;;;;;9.15;1.88;;;13.30;99.90;;;;;;5133145;27;20065;-59
2023/05/18 08:47:39;;;;;;;7.40;1.80;;;13.40;99.90;;;;;;5130994;27;20038;-59
2023/05/18 08:50:06;;;;;;;6.82;1.63;;;13.30;99.90;;;;;;5132526;27;20046;-59
2023/05/18 08:52:36;;;;;;;8.57;1.70;;;13.50;99.90;;;;;;5132265;27;20121;-60
2023/05/18 08:55:06;;;;;;;7.38;2.00;;;13.20;99.90;;;;;;5132527;27;20050;-60
2023/05/18 08:57:36;;;;;;;9.57;2.08;;;13.20;99.90;;;;;;5132484;27;20047;-59
2023/05/18 09:00:06;;;;;;;9.32;1.75;;;13.20;99.90;;;;;;5130620;27;20084;-60
2023/05/18 09:02:33;;;;;;;6.22;1.42;;;13.20;99.90;;;;;;5131838;27;20042;-60
2023/05/18 09:04:59;;;;;;;10.80;2.20;;;13.20;99.90;;;;;;5132022;27;20057;-60
2023/05/18 09:07:27;;;;;;;9.25;1.95;;;13.00;99.90;;;;;;5132980;27;20062;-60
2023/05/18 09:09:55;;;;;;;7.57;2.00;;;12.80;99.90;;;;;;5132598;27;20042;-59
2023/05/18 09:12:24;;;;;;;7.65;2.10;;;12.80;99.90;;;;;;5134552;27;20049;-60
2023/05/18 09:14:51;;;;;;;8.43;1.75;;;12.70;99.90;;;;;;5114421;27;20372;-59
2023/05/18 09:17:17;;;;;;;8.50;1.52;;;12.90;99.90;;;;;;5114377;27;20078;-60
2023/05/18 09:19:44;;;;;;;7.68;1.90;;;12.80;99.90;;;;;;5133120;27;20181;-59
2023/05/18 09:22:09;;;;;;;7.47;1.77;;;12.60;99.90;;;;;;5132229;27;20390;-59
2023/05/18 09:24:36;;;;;;;7.25;1.70;;;12.60;99.90;;;;;;5131449;27;20531;-60
2023/05/18 09:27:04;;;;;;;9.88;2.70;;;12.40;99.90;;;;;;5132449;27;20604;-60
2023/05/18 09:29:29;;;;;;;9.30;1.85;;;12.30;99.90;;;;;;5132609;27;20533;-60
2023/05/18 09:31:55;;;;;;;10.23;2.30;;;12.40;99.90;;;;;;5132041;27;20103;-60
2023/05/18 09:34:23;;;;;;;10.57;2.20;;;12.40;99.90;;;;;;5132521;27;20050;-59
2023/05/18 09:36:51;;;;;;;6.90;2.05;;;12.20;99.90;;;;;;5132197;27;20411;-59
2023/05/18 09:39:17;;;;;;;10.40;2.17;;;12.50;99.90;;;;;;5131271;27;20136;-60
2023/05/18 09:41:43;;;;;;;9.50;2.13;;;12.60;99.90;;;;;;5134493;27;20027;-60
2023/05/18 09:44:11;;;;;;;10.50;2.05;;;12.80;99.90;;;;;;5130796;27;20105;-60
2023/05/18 09:46:40;;;;;;;7.15;1.80;;;13.00;99.90;;;;;;5131828;27;20046;-59
2023/05/18 09:49:07;;;;;;;10.48;2.15;;;13.10;99.90;;;;;;5130688;27;20087;-60
2023/05/18 09:51:36;;;;;;;9.95;2.00;;;12.90;99.90;;;;;;5133915;27;20444;-60
2023/05/18 09:54:05;;;;;;;8.20;2.15;;;12.90;99.90;;;;;;5135198;27;20122;-60
2023/05/18 09:56:34;;;;;;;7.88;1.80;;;12.90;99.90;;;;;;5135118;27;20042;-60
2023/05/18 09:59:11;;;;;;;7.40;2.03;;;12.90;99.90;;;;;;5135998;27;20051;-60
2023/05/18 10:01:53;;;;;;;12.57;2.35;;;13.00;99.90;;;;;;5135386;27;20042;-60
2023/05/18 10:04:20;;;;;;;11.80;1.90;;;12.70;99.90;;;;;;5135509;27;20041;-60
2023/05/18 10:06:49;;;;;;;9.15;2.30;;;12.80;99.90;;;;;;5112034;27;20154;-61
2023/05/18 10:09:16;;;;;;;10.88;1.80;;;12.90;99.90;;;;;;5113782;27;20047;-59
2023/05/18 10:11:42;;;;;;;11.65;2.00;;;13.10;99.90;;;;;;5115804;27;20143;-60
2023/05/18 10:14:11;;;;;;;8.10;2.30;;;13.10;99.90;;;;;;5113877;27;20035;-60
2023/05/18 10:16:39;;;;;;;7.60;2.15;;;13.20;99.90;;;;;;5112695;27;20051;-59
2023/05/18 10:19:07;;;;;;;9.68;2.67;;;13.10;99.90;;;;;;5114876;27;20051;-60
2023/05/18 10:21:33;;;;;;;6.53;1.95;;;12.90;99.90;;;;;;5113947;27;20039;-60
2023/05/18 10:24:03;;;;;;;7.45;2.03;;;13.10;99.90;;;;;;5115367;27;20507;-59
2023/05/18 10:26:32;;;;;;;9.35;2.20;;;13.30;99.90;;;;;;5114773;27;20126;-60
2023/05/18 10:28:58;;;;;;;10.02;2.05;;;13.60;99.90;;;;;;5114400;27;20046;-59
2023/05/18 10:31:26;;;;;;;8.80;2.10;;;13.90;99.90;;;;;;5112564;27;20039;-60
2023/05/18 10:33:52;;;;;;;8.82;2.20;;;14.10;99.90;;;;;;5115071;27;20050;-60
2023/05/18 10:36:20;;;;;;;9.93;2.47;;;13.80;99.90;;;;;;5115188;27;20035;-60
2023/05/18 10:38:47;;;;;;;8.90;2.47;;;13.60;99.90;;;;;;5114727;27;20491;-59
2023/05/18 10:41:16;;;;;;;12.63;2.58;;;13.60;99.90;;;;;;5115565;27;20395;-60
2023/05/18 10:43:44;;;;;;;11.15;2.58;;;13.70;99.90;;;;;;5114337;27;20806;-60
2023/05/18 10:46:12;;;;;;;7.18;2.00;;;13.50;99.90;;;;;;5114148;27;20130;-60
2023/05/18 10:48:41;;;;;;;8.60;2.33;;;13.60;99.90;;;;;;5115723;27;20077;-59
2023/05/18 10:51:07;;;;;;;9.02;1.88;;;13.60;99.90;;;;;;5113938;27;20043;-60
2023/05/18 10:53:35;;;;;;;8.32;2.30;;;13.80;99.90;;;;;;5113619;27;20057;-60
2023/05/18 10:56:01;;;;;;;10.95;2.30;;;13.50;99.90;;;;;;5113390;27;20047;-60
2023/05/18 10:58:29;;;;;;;10.07;2.38;;;13.70;99.90;;;;;;5113866;27;20499;-59
2023/05/18 11:00:57;;;;;;;7.85;1.77;;;13.80;99.90;;;;;;5114408;27;20039;-60
2023/05/18 11:03:24;;;;;;;7.15;2.03;;;13.90;99.90;;;;;;5112778;27;20078;-60
2023/05/18 11:06:09;;;;;;;8.55;2.30;;;13.90;99.90;;;;;;5114742;27;20043;-61
2023/05/18 11:08:43;;;;;;;8.32;2.40;;;14.10;99.90;;;;;;5132446;27;20055;-60
2023/05/18 11:11:09;;;;;;;9.48;2.22;;;14.10;99.90;;;;;;5136602;27;20586;-60
2023/05/18 11:13:37;;;;;;;9.40;2.60;;;14.30;99.90;;;;;;5134426;27;20035;-60
2023/05/18 11:16:04;;;;;;;10.63;3.38;;;14.40;99.90;;;;;;5133047;27;20137;-60
2023/05/18 11:18:35;;;;;;;8.70;2.30;;;14.40;99.90;;;;;;5134229;27;20581;-60
2023/05/18 11:21:00;;;;;;;6.85;2.22;;;14.30;99.90;;;;;;5134304;27;20035;-60
2023/05/18 11:23:31;;;;;;;8.77;2.25;;;14.30;99.90;;;;;;5132985;27;20373;-60
2023/05/18 11:26:03;;;;;;;9.63;2.25;;;14.50;99.90;;;;;;5134748;27;21266;-60
2023/05/18 11:28:30;;;;;;;9.75;2.58;;;14.70;99.90;;;;;;5132951;27;20039;-60
2023/05/18 11:30:56;;;;;;;8.80;2.28;;;14.80;99.90;;;;;;5134112;27;20125;-59
2023/05/18 11:33:24;;;;;;;9.35;2.28;;;14.70;99.90;;;;;;5134150;27;20031;-60
2023/05/18 11:36:10;;;;;;;8.20;1.85;;;14.60;99.90;;;;;;5134292;27;20091;-60
2023/05/18 11:39:03;;;;;;;6.88;2.08;;;14.50;99.90;;;;;;5134557;27;20384;-60
2023/05/18 11:41:31;;;;;;;6.63;2.20;;;14.20;99.90;;;;;;5136240;27;20094;-61
2023/05/18 11:44:16;;;;;;;5.45;2.03;;;14.30;99.90;;;;;;5133429;27;20049;-60
2023/05/18 11:47:00;;;;;;;9.43;2.15;;;14.30;99.90;;;;;;5134700;27;20041;-60
2023/05/18 11:49:32;;;;;;;9.73;2.22;;;14.10;99.90;;;;;;5135497;27;20117;-60
2023/05/18 11:52:11;;;;;;;8.07;2.40;;;14.10;99.90;;;;;;5136041;27;20471;-60
2023/05/18 11:54:40;;;;;;;8.20;2.22;;;14.10;99.90;;;;;;5134469;27;20038;-60
2023/05/18 11:57:06;;;;;;;11.73;2.38;;;14.30;99.90;;;;;;5134397;27;20051;-61
2023/05/18 11:59:37;;;;;;;7.32;2.30;;;14.40;99.90;;;;;;5134358;27;20046;-61
2023/05/18 12:02:03;;;;;;;10.90;2.55;;;14.40;99.90;;;;;;5134728;27;20039;-60
2023/05/18 12:04:30;;;;;;;9.93;2.00;;;14.40;99.90;;;;;;5133552;27;20495;-60
2023/05/18 12:06:56;;;;;;;12.50;2.47;;;14.20;99.90;;;;;;5132016;27;20042;-60
2023/05/18 12:09:23;;;;;;;11.43;2.10;;;14.30;99.90;;;;;;5133096;27;20047;-60
2023/05/18 12:11:50;;;;;;;7.93;2.22;;;14.30;99.90;;;;;;5133899;27;20058;-60
2023/05/18 12:14:19;;;;;;;7.60;2.20;;;14.20;99.90;;;;;;5134235;27;20305;-60
2023/05/18 12:16:47;;;;;;;17.52;2.97;;;14.20;99.90;;;;;;5133787;27;20065;-61
2023/05/18 12:19:12;;;;;;;15.95;3.28;;;14.50;99.90;;;;;;5132212;27;20122;-61
2023/05/18 12:21:38;;;;;;;6.10;1.52;;;14.40;99.90;;;;;;5131698;27;20495;-59
2023/05/18 12:24:04;;;;;;;9.02;2.55;;;14.40;99.90;;;;;;5134396;27;20058;-60
2023/05/18 12:26:31;;;;;;;10.77;2.13;;;14.50;99.90;;;;;;5114144;27;20035;-61
2023/05/18 12:29:00;;;;;;;8.00;2.08;;;14.80;99.90;;;;;;5133126;27;20109;-61
2023/05/18 12:31:26;;;;;;;10.10;2.15;;;14.80;99.90;;;;;;5132927;27;20087;-60
2023/05/18 12:33:53;;;;;;;9.57;2.58;;;14.80;99.90;;;;;;5114724;27;20038;-60
2023/05/18 12:36:21;;;;;;;9.70;2.25;;;15.10;99.90;;;;;;5134084;27;20054;-59
2023/05/18 12:38:52;;;;;;;12.32;3.45;;;15.00;99.90;;;;;;5134419;27;20039;-60
2023/05/18 12:41:25;;;;;;;7.15;2.30;;;14.90;99.90;;;;;;5132984;27;20061;-59
2023/05/18 12:43:53;;;;;;;8.40;2.42;;;14.80;99.90;;;;;;5132702;27;20073;-60
2023/05/18 12:46:23;;;;;;;8.02;2.22;;;14.60;99.90;;;;;;5132705;27;20380;-59
2023/05/18 12:49:00;;;;;;;10.32;2.25;;;14.40;99.90;;;;;;5131511;27;20436;-60
2023/05/18 12:51:34;;;;;;;19.60;2.80;;;14.40;99.90;;;;;;5130534;27;20041;-60